Terminal Aerodrome Forecast
Issued by NWS

Home | Current Version | Previous Version | Graphics & Text | Print | Product List | Glossary On
Versions: 1 2 3 4 5 6 7 8 9 10 11 12 13 14 15 16
133
FTUS43 KBIS 181140
TAFJMS
TAF
KJMS 181140Z 1812/1912 12010KT 5SM -TSRA BKN090CB OVC110
     FM181300 05006KT P6SM SCT070 BKN120
     FM181500 06006KT P6SM VCTS SCT100CB BKN150
     FM181800 08007KT P6SM FEW100 FEW250=

USA.gov is the U.S. government's official web portal to all federal, state and local government web resources and services.